createdAt,value
2022-10-13T00:03:03.375Z,4.50
2022-10-13T00:06:45.069Z,3.20
2022-10-13T00:10:28.054Z,4.32
2022-10-13T00:14:09.739Z,3.85
2022-10-13T00:17:51.640Z,4.57
2022-10-13T00:21:33.503Z,5.88
2022-10-13T00:25:15.257Z,4.35
2022-10-13T00:28:57.056Z,4.97
2022-10-13T00:32:39.113Z,5.35
2022-10-13T00:36:21.565Z,6.55
2022-10-13T00:40:04.264Z,6.97
2022-10-13T00:44:27.634Z,9.35
2022-10-13T00:48:09.311Z,7.65
2022-10-13T00:51:51.210Z,6.65
2022-10-13T00:55:34.239Z,3.42
2022-10-13T00:59:23.204Z,5.63
2022-10-13T01:03:05.119Z,3.47
2022-10-13T01:06:46.838Z,4.60
2022-10-13T01:11:08.911Z,4.03
2022-10-13T01:15:19.890Z,5.35
2022-10-13T01:19:12.805Z,5.72
2022-10-13T01:23:40.250Z,6.55
2022-10-13T01:27:32.283Z,5.13
2022-10-13T01:31:52.919Z,4.20
2022-10-13T01:36:09.855Z,4.55
2022-10-13T01:39:58.074Z,5.55
2022-10-13T01:43:43.204Z,6.43
2022-10-13T01:47:24.896Z,4.95
2022-10-13T01:51:07.581Z,4.63
2022-10-13T01:54:52.627Z,4.32
2022-10-13T01:58:34.594Z,3.55
2022-10-13T02:02:48.760Z,4.22
2022-10-13T02:06:53.212Z,5.45
2022-10-13T02:10:51.987Z,4.30
2022-10-13T02:14:34.711Z,4.57
2022-10-13T02:18:18.880Z,3.78
2022-10-13T02:22:00.665Z,2.70
2022-10-13T02:25:42.452Z,4.78
2022-10-13T02:29:24.206Z,5.10
2022-10-13T02:33:06.111Z,3.78
2022-10-13T02:36:48.111Z,5.07
2022-10-13T02:40:29.975Z,5.43
2022-10-13T02:44:11.756Z,3.58
2022-10-13T02:47:53.455Z,3.45
2022-10-13T02:51:39.892Z,4.03
2022-10-13T02:55:22.190Z,3.50
2022-10-13T02:59:04.005Z,3.38
2022-10-13T03:02:46.017Z,3.10
2022-10-13T03:06:27.743Z,5.13
2022-10-13T03:10:09.724Z,5.00
2022-10-13T03:13:51.449Z,4.70
2022-10-13T03:17:33.114Z,2.70
2022-10-13T03:21:15.195Z,4.90
2022-10-13T03:24:56.999Z,4.60
2022-10-13T03:28:38.702Z,3.70
2022-10-13T03:32:21.045Z,9.68
2022-10-13T03:36:04.697Z,5.45
2022-10-13T03:39:46.437Z,4.28
2022-10-13T03:43:28.298Z,10.45
2022-10-13T03:47:09.969Z,79.75
2022-10-13T03:50:52.030Z,86.80
2022-10-13T03:54:33.719Z,59.75
2022-10-13T03:58:15.447Z,46.63
2022-10-13T04:01:57.332Z,20.35
2022-10-13T04:05:39.056Z,12.77
2022-10-13T04:09:20.844Z,24.42
2022-10-13T04:13:02.779Z,26.27
2022-10-13T04:16:44.458Z,67.60
2022-10-13T04:20:26.259Z,37.63
2022-10-13T04:24:08.175Z,15.32
2022-10-13T04:27:50.372Z,12.27
2022-10-13T04:31:32.463Z,19.58
2022-10-13T04:35:14.206Z,16.65
2022-10-13T04:38:55.981Z,31.70
2022-10-13T04:42:37.690Z,12.68
2022-10-13T04:46:21.174Z,17.27
2022-10-13T04:50:02.941Z,18.52
2022-10-13T04:53:44.677Z,31.80
2022-10-13T04:57:26.407Z,30.92
2022-10-13T05:01:11.325Z,23.80
2022-10-13T05:04:53.019Z,13.32
2022-10-13T05:08:34.710Z,29.00
2022-10-13T05:12:16.818Z,34.33
2022-10-13T05:15:58.685Z,36.15
2022-10-13T05:19:40.357Z,25.80
2022-10-13T05:23:22.290Z,18.17
2022-10-13T05:27:12.234Z,3.47
2022-10-13T05:30:53.998Z,4.25
2022-10-13T05:34:35.710Z,3.15
2022-10-13T05:38:17.374Z,3.95
2022-10-13T05:42:00.313Z,7.45
2022-10-13T05:45:41.995Z,7.40
2022-10-13T05:49:23.707Z,13.10
2022-10-13T05:53:05.758Z,15.60
2022-10-13T05:57:14.093Z,12.38
2022-10-13T06:00:56.063Z,28.70
2022-10-13T06:04:40.011Z,25.67
2022-10-13T06:08:21.687Z,17.50
2022-10-13T06:12:04.754Z,19.02
2022-10-13T06:15:46.493Z,22.42
2022-10-13T06:19:28.210Z,38.65
2022-10-13T06:23:10.035Z,17.23
2022-10-13T06:26:51.696Z,17.08
2022-10-13T06:30:33.534Z,10.85
2022-10-13T06:34:15.315Z,9.68
2022-10-13T06:37:57.506Z,10.35
2022-10-13T06:41:40.459Z,5.20
2022-10-13T06:45:22.273Z,12.30
2022-10-13T06:49:03.955Z,6.13
2022-10-13T06:52:45.886Z,11.27
2022-10-13T06:56:28.935Z,20.63
2022-10-13T07:00:11.571Z,42.10
2022-10-13T07:03:53.252Z,36.80
2022-10-13T07:07:34.979Z,39.47
2022-10-13T07:11:18.559Z,25.58
2022-10-13T07:15:00.246Z,12.50
2022-10-13T07:18:41.971Z,2.53
2022-10-13T07:22:23.755Z,6.97
2022-10-13T07:26:09.778Z,6.90
2022-10-13T07:29:51.450Z,4.28
2022-10-13T07:33:33.158Z,3.78
2022-10-13T07:37:17.776Z,3.45
2022-10-13T07:41:04.507Z,4.57
2022-10-13T07:44:46.262Z,2.33
2022-10-13T07:48:28.481Z,4.50
2022-10-13T07:52:10.578Z,6.85
2022-10-13T07:55:52.298Z,7.25
2022-10-13T07:59:34.136Z,6.40
2022-10-13T08:03:15.846Z,7.18
2022-10-13T08:06:58.365Z,8.40
2022-10-13T08:10:40.077Z,5.60
2022-10-13T08:14:21.778Z,7.85
2022-10-13T08:18:03.510Z,12.95
2022-10-13T08:22:01.813Z,10.55
2022-10-13T08:25:44.022Z,6.30
2022-10-13T08:29:25.851Z,11.15
2022-10-13T08:33:07.771Z,5.95
2022-10-13T08:36:53.067Z,7.43
2022-10-13T08:40:35.163Z,5.90
2022-10-13T08:48:37.371Z,8.18
2022-10-13T08:52:24.574Z,7.13
2022-10-13T08:56:17.658Z,7.35
2022-10-13T08:59:59.347Z,21.10
2022-10-13T09:03:45.550Z,9.35
2022-10-13T09:07:28.832Z,19.05
2022-10-13T09:11:12.323Z,5.80
2022-10-13T09:15:05.114Z,22.77
2022-10-13T09:18:46.819Z,7.82
2022-10-13T09:22:34.075Z,11.95
2022-10-13T09:26:23.712Z,5.00
2022-10-13T09:30:26.369Z,7.20
2022-10-13T09:34:18.816Z,8.70
2022-10-13T09:38:20.457Z,3.60
2022-10-13T09:42:29.502Z,4.10
2022-10-13T09:46:31.486Z,4.65
2022-10-13T09:50:21.311Z,5.15
2022-10-13T09:54:03.512Z,5.35
2022-10-13T09:57:48.837Z,7.68
2022-10-13T10:01:34.326Z,9.00
2022-10-13T10:05:24.587Z,7.30
2022-10-13T10:09:35.146Z,10.38
2022-10-13T10:13:17.038Z,9.20
2022-10-13T10:17:20.854Z,8.38
2022-10-13T10:24:56.005Z,6.20
2022-10-13T10:28:46.839Z,6.63
2022-10-13T10:32:38.658Z,6.70
2022-10-13T10:36:23.680Z,8.57
2022-10-13T10:40:16.745Z,8.52
2022-10-13T10:44:03.072Z,9.70
2022-10-13T10:47:47.389Z,4.97
2022-10-13T10:51:34.024Z,5.57
2022-10-13T10:55:35.891Z,4.53
2022-10-13T10:59:40.204Z,5.50
2022-10-13T11:03:32.243Z,8.00
2022-10-13T11:07:23.266Z,7.35
2022-10-13T11:11:37.541Z,5.60
2022-10-13T11:15:27.498Z,4.80
2022-10-13T11:19:28.627Z,7.00
2022-10-13T11:23:13.404Z,5.93
2022-10-13T11:26:55.412Z,5.63
2022-10-13T11:30:47.413Z,5.22
2022-10-13T11:34:30.966Z,7.30
2022-10-13T11:38:27.125Z,9.02
2022-10-13T11:42:15.062Z,6.32
2022-10-13T11:46:23.338Z,6.82
2022-10-13T11:50:26.187Z,8.85
2022-10-13T11:54:13.650Z,7.13
2022-10-13T11:58:09.318Z,5.93
2022-10-13T12:02:18.877Z,7.63
2022-10-13T12:06:05.888Z,7.05
2022-10-13T12:09:52.818Z,4.50
2022-10-13T12:13:34.791Z,6.38
2022-10-13T12:17:24.192Z,5.85
2022-10-13T12:21:24.818Z,4.38
2022-10-13T12:25:07.142Z,11.27
2022-10-13T12:28:50.496Z,6.18
2022-10-13T12:32:34.253Z,7.55
2022-10-13T12:40:01.031Z,5.88
2022-10-13T12:43:42.701Z,6.18
2022-10-13T12:47:47.281Z,7.35
2022-10-13T12:51:29.289Z,7.45
2022-10-13T12:55:17.786Z,5.65
2022-10-13T12:58:59.459Z,5.15
2022-10-13T13:02:41.377Z,8.43
2022-10-13T13:06:29.500Z,5.47
2022-10-13T13:10:16.733Z,6.07
2022-10-13T13:14:36.594Z,11.65
2022-10-13T13:18:27.134Z,8.70
2022-10-13T13:22:09.150Z,9.30
2022-10-13T13:26:06.625Z,6.13
2022-10-13T13:29:48.407Z,7.03
2022-10-13T13:33:30.235Z,5.63
2022-10-13T13:37:47.839Z,6.07
2022-10-13T13:41:31.238Z,8.65
2022-10-13T13:45:14.047Z,5.70
2022-10-13T13:48:55.771Z,5.50
2022-10-13T13:52:38.494Z,7.15
2022-10-13T13:56:20.359Z,14.40
2022-10-13T14:00:02.197Z,7.97
2022-10-13T14:03:44.104Z,8.20
2022-10-13T14:07:25.959Z,8.18
2022-10-13T14:11:07.951Z,6.95
2022-10-13T14:14:49.614Z,9.60
2022-10-13T14:18:31.491Z,8.35
2022-10-13T14:22:13.176Z,9.77
2022-10-13T14:25:54.903Z,8.38
2022-10-13T14:29:36.939Z,5.18
2022-10-13T14:33:19.680Z,12.32
2022-10-13T14:37:01.425Z,10.33
2022-10-13T14:40:43.240Z,8.43
2022-10-13T14:44:24.901Z,14.45
2022-10-13T14:48:06.581Z,10.25
2022-10-13T14:51:48.359Z,12.35
2022-10-13T14:55:31.634Z,8.20
2022-10-13T14:59:13.345Z,9.10
2022-10-13T15:02:55.240Z,10.82
2022-10-13T15:06:39.355Z,13.10
2022-10-13T15:10:21.526Z,10.02
2022-10-13T15:14:03.265Z,9.50
2022-10-13T15:17:44.951Z,10.60
2022-10-13T15:21:26.901Z,8.80
2022-10-13T15:25:10.347Z,8.02
2022-10-13T15:28:52.761Z,8.75
2022-10-13T15:32:34.583Z,10.15
2022-10-13T15:36:16.310Z,11.88
2022-10-13T15:39:58.029Z,5.82
2022-10-13T15:43:39.736Z,8.65
2022-10-13T15:47:21.617Z,12.10
2022-10-13T15:51:09.476Z,9.25
2022-10-13T15:54:51.546Z,9.38
2022-10-13T15:58:35.158Z,11.93
2022-10-13T16:05:58.719Z,6.05
2022-10-13T16:09:40.410Z,9.32
2022-10-13T16:13:22.393Z,10.20
2022-10-13T16:17:04.138Z,7.25
2022-10-13T16:20:45.965Z,11.88
2022-10-13T16:24:28.958Z,7.97
2022-10-13T16:28:10.732Z,8.88
2022-10-13T16:31:52.601Z,7.18
2022-10-13T16:35:36.887Z,7.45
2022-10-13T16:39:18.619Z,7.53
2022-10-13T16:43:00.525Z,8.98
2022-10-13T16:46:43.011Z,6.38
2022-10-13T16:50:25.093Z,9.57
2022-10-13T16:54:06.766Z,8.57
2022-10-13T16:57:48.439Z,9.15
2022-10-13T17:01:30.683Z,7.78
2022-10-13T17:05:12.370Z,8.30
2022-10-13T17:08:54.402Z,7.93
2022-10-13T17:12:36.303Z,8.85
2022-10-13T17:16:18.383Z,8.07
2022-10-13T17:20:00.081Z,9.18
2022-10-13T17:23:47.385Z,14.40
2022-10-13T17:27:30.231Z,11.52
2022-10-13T17:31:16.669Z,19.67
2022-10-13T17:34:58.337Z,13.73
2022-10-13T17:38:40.123Z,10.65
2022-10-13T17:42:22.071Z,13.82
2022-10-13T17:50:17.231Z,12.88
2022-10-13T17:53:59.563Z,7.80
2022-10-13T17:57:41.312Z,10.50
2022-10-13T18:01:25.831Z,10.52
2022-10-13T18:05:07.834Z,8.00
2022-10-13T18:08:52.675Z,11.45
2022-10-13T18:12:34.542Z,11.13
2022-10-13T18:16:25.919Z,17.63
2022-10-13T18:20:08.209Z,14.88
2022-10-13T18:23:49.990Z,14.45
2022-10-13T18:27:31.658Z,13.10
2022-10-13T18:31:15.924Z,15.10
2022-10-13T18:34:57.645Z,16.50
2022-10-13T18:38:39.302Z,16.27
2022-10-13T18:42:21.201Z,16.13
2022-10-13T18:46:02.981Z,12.82
2022-10-13T18:49:44.650Z,21.25
2022-10-13T18:53:26.562Z,12.77
2022-10-13T18:57:08.241Z,10.75
2022-10-13T19:00:50.446Z,13.35
2022-10-13T19:04:32.160Z,15.93
2022-10-13T19:08:13.833Z,16.80
2022-10-13T19:11:56.941Z,19.33
2022-10-13T19:15:39.763Z,21.80
2022-10-13T19:19:21.478Z,20.13
2022-10-13T19:23:03.625Z,20.35
2022-10-13T19:26:45.306Z,18.92
2022-10-13T19:30:27.160Z,20.83
2022-10-13T19:34:09.566Z,19.17
2022-10-13T19:37:51.229Z,13.93
2022-10-13T19:41:33.250Z,11.07
2022-10-13T19:45:14.953Z,14.07
2022-10-13T19:48:56.617Z,17.10
2022-10-13T19:52:38.417Z,15.82
2022-10-13T19:56:25.733Z,12.23
2022-10-13T20:00:08.299Z,13.02
2022-10-13T20:03:50.161Z,14.60
2022-10-13T20:07:31.859Z,12.13
2022-10-13T20:11:22.198Z,14.82
2022-10-13T20:15:05.602Z,16.52
2022-10-13T20:18:51.708Z,16.65
2022-10-13T20:22:34.678Z,16.52
2022-10-13T20:26:16.446Z,14.60
2022-10-13T20:29:58.115Z,14.15
2022-10-13T20:33:39.972Z,13.40
2022-10-13T20:37:21.831Z,18.38
2022-10-13T20:41:08.572Z,17.20
2022-10-13T20:44:50.272Z,16.52
2022-10-13T20:48:51.026Z,16.60
2022-10-13T20:52:35.266Z,15.10
2022-10-13T20:56:21.612Z,17.50
2022-10-13T21:00:04.803Z,16.50
2022-10-13T21:03:46.654Z,24.90
2022-10-13T21:07:28.526Z,15.13
2022-10-13T21:11:11.615Z,19.05
2022-10-13T21:14:53.451Z,14.38
2022-10-13T21:18:35.220Z,15.82
2022-10-13T21:22:16.942Z,21.10
2022-10-13T21:26:01.538Z,17.30
2022-10-13T21:29:43.193Z,22.30
2022-10-13T21:33:25.028Z,17.00
2022-10-13T21:37:06.685Z,17.85
2022-10-13T21:40:53.675Z,20.30
2022-10-13T21:44:35.643Z,14.32
2022-10-13T21:48:17.308Z,18.02
2022-10-13T21:51:59.481Z,16.77
2022-10-13T21:55:42.042Z,13.98
2022-10-13T21:59:23.721Z,13.02
2022-10-13T22:03:24.067Z,14.77
2022-10-13T22:07:05.875Z,14.23
2022-10-13T22:10:47.755Z,14.48
2022-10-13T22:14:29.431Z,20.13
2022-10-13T22:18:11.099Z,16.33
2022-10-13T22:21:54.024Z,19.45
2022-10-13T22:25:35.696Z,17.83
2022-10-13T22:29:19.414Z,14.45
2022-10-13T22:36:45.189Z,15.02
2022-10-13T22:40:27.485Z,15.18
2022-10-13T22:44:09.174Z,14.82
2022-10-13T22:47:51.270Z,13.77
2022-10-13T22:51:34.180Z,16.23
2022-10-13T22:55:15.914Z,18.37
2022-10-13T22:59:02.094Z,16.02
2022-10-13T23:02:43.981Z,17.73
2022-10-13T23:06:31.346Z,15.23
2022-10-13T23:10:13.184Z,16.40
2022-10-13T23:13:54.990Z,14.80
2022-10-13T23:17:36.719Z,17.55
2022-10-13T23:21:19.595Z,16.90
2022-10-13T23:25:01.261Z,15.97
2022-10-13T23:28:43.216Z,17.08
2022-10-13T23:32:25.192Z,15.60
2022-10-13T23:36:07.583Z,14.52
2022-10-13T23:39:49.254Z,14.25
2022-10-13T23:43:32.070Z,15.18
2022-10-13T23:47:13.730Z,17.47
2022-10-13T23:50:55.829Z,15.82
2022-10-13T23:54:37.490Z,15.48
2022-10-13T23:58:19.137Z,14.18
